createdAt,value
2018-07-05T04:00:21.274Z,10.93
2018-07-05T04:02:59.955Z,10.83
2018-07-05T04:05:38.594Z,10.73
2018-07-05T04:08:17.674Z,11.37
2018-07-05T04:10:56.438Z,11.23
2018-07-05T04:13:35.126Z,12.40
2018-07-05T04:16:13.681Z,10.47
2018-07-05T04:18:52.177Z,10.87
2018-07-05T04:21:30.937Z,10.60
2018-07-05T04:24:09.394Z,12.37
2018-07-05T04:26:47.810Z,10.83
2018-07-05T04:29:26.339Z,10.37
2018-07-05T04:32:05.093Z,11.10
2018-07-05T04:34:43.769Z,11.00
2018-07-05T04:37:22.445Z,10.30
2018-07-05T04:40:00.913Z,11.53
2018-07-05T04:42:39.555Z,10.53
2018-07-05T04:45:18.176Z,10.73
2018-07-05T04:47:56.802Z,11.53
2018-07-05T04:50:35.606Z,10.60
2018-07-05T04:53:15.624Z,12.33
2018-07-05T04:55:55.652Z,11.77
2018-07-05T04:58:35.880Z,10.43
2018-07-05T05:01:16.487Z,11.57
2018-07-05T05:03:55.153Z,13.57
2018-07-05T05:06:46.350Z,12.13
2018-07-05T05:09:25.296Z,14.57
2018-07-05T05:12:03.949Z,11.80
2018-07-05T05:14:42.477Z,15.37
2018-07-05T05:17:21.119Z,16.00
2018-07-05T05:19:59.650Z,15.53
2018-07-05T05:22:38.192Z,15.33
2018-07-05T05:25:16.777Z,13.97
2018-07-05T05:27:55.336Z,13.17
2018-07-05T05:30:33.862Z,11.77
2018-07-05T05:33:12.380Z,12.13
2018-07-05T05:35:51.594Z,12.50
2018-07-05T05:38:30.313Z,12.10
2018-07-05T05:41:08.718Z,11.37
2018-07-05T05:43:47.339Z,12.03
2018-07-05T05:46:25.929Z,12.63
2018-07-05T05:49:04.682Z,12.87
2018-07-05T05:51:43.229Z,14.23
2018-07-05T05:54:21.741Z,12.53
2018-07-05T05:57:00.234Z,13.80
2018-07-05T05:59:38.681Z,13.90
2018-07-05T06:02:17.255Z,12.77
2018-07-05T06:04:55.778Z,15.30
2018-07-05T06:07:34.397Z,13.30
2018-07-05T06:10:12.890Z,14.57
2018-07-05T06:12:51.546Z,13.63
2018-07-05T06:15:30.106Z,14.20
2018-07-05T06:18:08.857Z,13.33
2018-07-05T06:20:47.384Z,13.47
2018-07-05T06:23:25.834Z,13.70
2018-07-05T06:26:04.513Z,13.13
2018-07-05T06:28:43.023Z,13.43
2018-07-05T06:31:21.522Z,15.57
2018-07-05T06:34:00.160Z,15.03
2018-07-05T06:36:38.750Z,14.17
2018-07-05T06:39:17.478Z,15.23
2018-07-05T06:41:56.134Z,14.07
2018-07-05T06:44:35.574Z,12.77
2018-07-05T06:47:14.290Z,13.37
2018-07-05T06:49:52.760Z,14.40
2018-07-05T06:52:31.313Z,12.67
2018-07-05T06:55:09.969Z,14.27
2018-07-05T06:57:48.531Z,13.03
2018-07-05T07:00:27.070Z,12.00
2018-07-05T07:03:05.453Z,12.53
2018-07-05T07:05:43.997Z,14.07
2018-07-05T07:08:22.477Z,13.53
2018-07-05T07:11:01.089Z,14.10
2018-07-05T07:13:39.559Z,13.93
2018-07-05T07:16:18.126Z,13.20
2018-07-05T07:18:56.880Z,13.30
2018-07-05T07:21:35.622Z,18.13
2018-07-05T07:24:14.412Z,14.30
2018-07-05T07:26:53.081Z,13.80
2018-07-05T07:29:31.833Z,13.40
2018-07-05T07:32:10.376Z,9.93
2018-07-05T07:34:48.829Z,12.67
2018-07-05T07:37:27.508Z,10.40
2018-07-05T07:40:06.611Z,10.00
2018-07-05T07:42:32.695Z,6.40
2018-07-05T07:44:58.827Z,7.33
2018-07-05T07:47:24.893Z,7.17
2018-07-05T07:49:50.985Z,8.90
2018-07-05T07:52:17.073Z,8.30
2018-07-05T07:54:43.158Z,8.53
2018-07-05T07:57:09.239Z,9.83
2018-07-05T07:59:35.319Z,10.53
2018-07-05T08:02:01.404Z,9.73
2018-07-05T08:04:27.502Z,9.33
2018-07-05T08:06:53.600Z,9.80
2018-07-05T08:09:19.674Z,8.77
2018-07-05T08:11:45.760Z,9.63
2018-07-05T08:14:11.854Z,9.80
2018-07-05T08:16:37.937Z,9.10
2018-07-05T08:19:04.006Z,15.37
2018-07-05T08:21:30.102Z,9.53
2018-07-05T08:23:56.174Z,9.00
2018-07-05T08:26:22.254Z,8.67
2018-07-05T08:28:48.357Z,9.97
2018-07-05T08:31:14.456Z,9.30
2018-07-05T08:33:40.526Z,8.90
2018-07-05T08:36:06.614Z,8.63
2018-07-05T08:38:32.710Z,8.93
2018-07-05T08:40:58.806Z,8.93
2018-07-05T08:43:24.885Z,7.00
2018-07-05T08:45:50.970Z,8.00
2018-07-05T08:48:17.061Z,7.73
2018-07-05T08:50:43.132Z,10.00
2018-07-05T08:53:09.218Z,6.93
2018-07-05T08:55:35.293Z,6.53
2018-07-05T08:58:01.387Z,6.63
2018-07-05T09:00:27.482Z,6.13
2018-07-05T09:02:53.567Z,6.33
2018-07-05T09:05:19.795Z,5.87
2018-07-05T09:07:45.828Z,5.63
2018-07-05T09:10:11.918Z,6.63
2018-07-05T09:12:38.018Z,5.60
2018-07-05T09:15:04.101Z,7.30
2018-07-05T09:17:30.221Z,6.50
2018-07-05T09:19:56.278Z,6.20
2018-07-05T09:22:22.381Z,6.17
2018-07-05T09:24:48.466Z,6.30
2018-07-05T09:27:14.550Z,5.90
2018-07-05T09:29:40.641Z,6.47
2018-07-05T09:32:06.718Z,5.10
2018-07-05T09:34:32.809Z,6.50
2018-07-05T09:36:58.873Z,5.47
2018-07-05T09:39:24.954Z,5.87
2018-07-05T09:41:51.033Z,6.23
2018-07-05T09:44:17.125Z,4.33
2018-07-05T09:46:43.204Z,5.40
2018-07-05T09:49:09.316Z,4.63
2018-07-05T09:51:35.394Z,6.33
2018-07-05T09:54:01.474Z,4.60
2018-07-05T09:56:27.552Z,4.73
2018-07-05T09:58:53.635Z,4.23
2018-07-05T10:01:19.701Z,4.40
2018-07-05T10:03:45.805Z,4.57
2018-07-05T10:06:11.854Z,4.23
2018-07-05T10:08:37.977Z,4.80
2018-07-05T10:11:04.039Z,4.40
2018-07-05T10:13:30.248Z,4.87
2018-07-05T10:15:56.215Z,4.50
2018-07-05T10:18:22.309Z,4.20
2018-07-05T10:20:48.389Z,4.90
2018-07-05T10:23:14.488Z,4.80
2018-07-05T10:25:40.550Z,4.73
2018-07-05T10:28:06.623Z,4.53
2018-07-05T10:30:45.135Z,4.33
2018-07-05T10:33:23.882Z,4.47
2018-07-05T10:35:49.965Z,4.20
2018-07-05T10:38:16.030Z,4.17
2018-07-05T10:40:54.517Z,5.03
2018-07-05T10:43:33.157Z,4.50
2018-07-05T10:46:11.683Z,4.77
2018-07-05T10:48:50.171Z,4.47
2018-07-05T10:51:28.610Z,5.20
2018-07-05T10:54:07.427Z,4.53
2018-07-05T10:56:45.942Z,4.60
2018-07-05T10:59:24.630Z,4.40
2018-07-05T11:02:03.286Z,4.07
2018-07-05T11:04:41.900Z,4.37
2018-07-05T11:07:20.515Z,4.73
2018-07-05T11:09:59.039Z,5.37
2018-07-05T11:12:37.790Z,4.80
2018-07-05T11:15:16.281Z,4.10
2018-07-05T11:17:54.770Z,4.10
2018-07-05T11:20:33.294Z,4.40
2018-07-05T11:23:11.933Z,4.10
2018-07-05T11:25:50.577Z,3.73
2018-07-05T11:28:29.165Z,4.50
2018-07-05T11:31:07.653Z,4.63
2018-07-05T11:33:46.178Z,4.23
2018-07-05T11:36:24.830Z,4.30
2018-07-05T11:39:04.575Z,3.83
2018-07-05T11:41:43.175Z,4.40
2018-07-05T11:44:21.596Z,4.17
2018-07-05T11:47:00.118Z,4.40
2018-07-05T11:49:38.755Z,4.27
2018-07-05T11:52:17.418Z,3.93
2018-07-05T11:54:56.155Z,4.07
2018-07-05T11:57:34.618Z,4.33
2018-07-05T12:00:13.301Z,3.97
2018-07-05T12:02:51.868Z,4.00
2018-07-05T12:05:30.409Z,3.83
2018-07-05T12:08:08.996Z,4.00
2018-07-05T12:10:47.653Z,3.40
2018-07-05T12:13:26.181Z,3.80
2018-07-05T12:16:04.685Z,5.77
2018-07-05T12:18:43.297Z,2.83
2018-07-05T12:21:21.733Z,3.50
2018-07-05T12:24:00.253Z,3.10
2018-07-05T12:26:38.749Z,2.67
2018-07-05T12:29:17.299Z,2.70
2018-07-05T12:31:55.886Z,2.47
2018-07-05T12:34:34.422Z,2.70
2018-07-05T12:37:13.011Z,2.17
2018-07-05T12:39:51.558Z,2.30
2018-07-05T12:42:30.726Z,2.40
2018-07-05T12:45:09.168Z,3.73
2018-07-05T12:47:47.774Z,2.63
2018-07-05T12:50:26.477Z,2.33
2018-07-05T12:53:05.281Z,2.60
2018-07-05T12:55:45.554Z,2.50
2018-07-05T12:58:24.175Z,2.60
2018-07-05T13:01:02.826Z,3.37
2018-07-05T13:03:41.525Z,2.47
2018-07-05T13:06:19.989Z,3.93
2018-07-05T13:08:58.651Z,2.90
2018-07-05T13:11:37.209Z,2.50
2018-07-05T13:14:15.770Z,2.60
2018-07-05T13:16:54.514Z,2.80
2018-07-05T13:19:33.226Z,5.73
2018-07-05T13:22:11.878Z,3.10
2018-07-05T13:24:50.514Z,5.10
2018-07-05T13:27:29.038Z,4.80
2018-07-05T13:30:07.687Z,3.43
2018-07-05T13:32:46.336Z,3.50
2018-07-05T13:35:25.506Z,3.40
2018-07-05T13:38:04.016Z,8.67
2018-07-05T13:40:42.602Z,4.67
2018-07-05T13:43:21.219Z,4.53
2018-07-05T13:45:59.871Z,4.47
2018-07-05T13:48:38.425Z,4.70
2018-07-05T13:51:16.994Z,4.20
2018-07-05T13:53:55.584Z,4.20
2018-07-05T13:56:34.251Z,4.40
2018-07-05T13:59:12.633Z,4.77
2018-07-05T14:01:51.269Z,5.90
2018-07-05T14:04:30.030Z,6.37
2018-07-05T14:07:08.550Z,4.73
2018-07-05T14:09:47.069Z,8.70
2018-07-05T14:12:25.626Z,4.67
2018-07-05T14:15:04.335Z,4.67
2018-07-05T14:17:42.918Z,5.30
2018-07-05T14:20:21.541Z,5.17
2018-07-05T14:23:00.126Z,4.30
2018-07-05T14:25:38.713Z,4.73
2018-07-05T14:28:17.241Z,4.83
2018-07-05T14:30:55.726Z,8.43
2018-07-05T14:33:34.498Z,8.17
2018-07-05T14:36:13.033Z,6.07
2018-07-05T14:38:51.565Z,4.70
2018-07-05T14:41:30.205Z,7.60
2018-07-05T14:44:08.757Z,12.40
2018-07-05T14:46:47.993Z,13.97
2018-07-05T14:49:26.507Z,6.60
2018-07-05T14:52:05.346Z,11.13
2018-07-05T14:54:43.837Z,8.00
2018-07-05T14:57:22.371Z,10.27
2018-07-05T15:00:00.870Z,8.93
2018-07-05T15:02:39.957Z,14.33
2018-07-05T15:07:41.817Z,18.17
2018-07-05T15:15:46.060Z,21.17
2018-07-05T15:18:25.038Z,10.10
2018-07-05T15:21:03.680Z,19.90
2018-07-05T15:23:42.275Z,24.53
2018-07-05T15:26:21.542Z,22.03
2018-07-05T15:30:43.204Z,24.40
2018-07-05T15:33:22.058Z,8.73
2018-07-05T15:36:00.733Z,6.70
2018-07-05T15:38:39.365Z,4.70
2018-07-05T15:41:17.913Z,5.00
2018-07-05T15:43:56.792Z,6.00
2018-07-05T15:46:35.507Z,6.33
2018-07-05T15:49:14.248Z,9.60
2018-07-05T15:51:53.518Z,8.27
2018-07-05T15:54:32.194Z,8.70
2018-07-05T15:57:54.612Z,5.03
2018-07-05T17:35:59.589Z,7.53
2018-07-05T17:39:00.157Z,5.07
2018-07-05T17:42:58.673Z,5.57
2018-07-05T17:51:18.930Z,6.00
2018-07-05T17:55:57.659Z,7.20
2018-07-05T18:00:55.830Z,7.80
2018-07-05T18:13:49.093Z,8.50
2018-07-05T18:17:12.785Z,6.20
2018-07-05T18:21:01.326Z,6.63
2018-07-05T18:27:47.809Z,6.93
2018-07-05T18:38:27.022Z,8.03
2018-07-05T19:02:18.085Z,9.23
2018-07-05T20:24:51.480Z,8.73
2018-07-05T20:28:05.750Z,9.30
2018-07-05T20:31:44.117Z,9.57
